0+  6+  12+  16+  18+  61+ 

„то искали и что нашли (за 23.08.2009)

„то искали и что нашли (за 23.08.2009)


  огда? уда?ќткуда?
YA00:00:46/auspuff/28/3378/катализатор дл€ AUDI A6 1996г
YA00:02:36/honda/1331/340775/досуг.ну
YA00:03:24/model/6413/3286789/‘ильмы Ќƒ качество
G00:04:02/vw/1413/508392/априоре
YA00:04:07/kurilka/81/35020/опаздываю во сне на поезд или самолет
YA00:04:35/honda/535/165715/?all=n/обувь на кропоткинской
G00:06:20/model/5478/2815815/пресеты дл€ фотоматикс
YA00:07:07/model/6046/3111484/голые вечеринки
M00:07:19/honda/183/57782/посмотреть порнуху
YA00:09:28/model/4787/2460959das boot фразы
YA00:09:28/model/4787/2460959/das boot фразы
YA00:09:34/model/3854/2001251/бл€ди
G00:09:48/model/5478/2815815/пресеты дл€ фотоматикс
G00:12:17/vw/4092/1520677/эковата мокрое нанесение
G00:13:41/model/1960/1022489/эковата мокрое нанесение
YA00:13:56/model/4115/2128453/ѕусть день твой будет солнечным, прекрасным. » розами твой будет устлан путь. » каждый вечер - звЄздным, чистым, €сным. {»м€}, всегда счастливой будь!!!
G00:14:35/model/4160/2150431/эксгибицианист
YA00:14:53/model/2604/1336713/а ты не летчик а € была так радатекст
YA00:15:24/model/2294/1177074прощай от всех вокзалов поезда mp3
YA00:15:24/model/2294/1177074/прощай от всех вокзалов поезда mp3
YA00:18:01/model/1011/547850/ћатацыкл днепр
G00:18:53/vw/3885/1447112/elena blonda1234
YA00:19:11/vw/3954/1469157/минетчицы
YA00:19:14/model/4220/2180094/зассыхи
YA00:22:12/model/2604/1336713/а ты не летчик а € была так рада
YA00:25:00/kurilka/200/92365/прощай отчий край ты нас вспоминай
YA00:26:22/golflab/49/10331/golf 3 рем комплект кулисы
G00:31:44/vw/1434/516849/прикольные погон€ла
G00:32:11/vw/1143/налошыть оч легко
YA00:32:42/model/3886/2016914/песни из фильма —трах и Ќенависть в ласвегасе
G00:36:02/model/6914/3509160/сама€ лучша€ машина 2009 г
YA00:36:07/model/3593/1871777/тотал аннигилейшнъ по интернету
G00:36:58/vw/2/300/фольксваген наркоман
G00:39:31/model/3089/1591233/— ј…ѕ. ќћ
YA00:39:53/model/2312/1186031/бл€дска€ дорожка
YA00:40:23/honda/1340/342504/бл€дска€ дорожка
G00:43:11/model/3640/1895457/ѕисичка
G00:43:51/honda/176/55277/как перестать дрочить
YA00:46:08/vw/291/самодельный Karcher
M00:49:36/model/2832/1455920/пропустила свадьбу подруги
G00:50:14/honda/812/232536/зоопорнуха
YA00:52:48/model/144/87040/€вл€етс€ ли ананизм изменой
G00:53:02/model/615/343921/лада фаворит спецсборка
YA00:53:47/vw/4105/1526105роуминг
YA00:53:48/vw/4105/1526105/роуминг
YA00:55:10/model/2604/1336713/а ты не летчик, а € была так рада любить геро€ из летного отр€да
G00:57:49/model/480/272667/лада фаворит спецсборка
YA00:59:11/model/4649/2391755/скачать кал оф дьюти 5
M01:02:51/photo/1/61/сапатка
YA01:03:08/honda/1340/342624/блюфиш
YA01:06:11/kurilka/300/138984/рыбный тухл€к
M01:06:43/model/2610/1339864/письки
YA01:07:46/honda/27/7795/пелотка
G01:08:21/model/5929/3053417/насто€щее гавно
YA01:08:55/golflab/81/18713/спортивна€ подвеска на гольф 3
YA01:09:58/kurilka/322/149411/стакан спермы
YA01:10:13/honda/1350/345126/как правильно ебать
YA01:10:59/honda/650/194339/www.dom2.ru
YA01:11:16/honda/142/43558/ѕорно россказы
R01:13:12/fishing/2/265/ловл€ щуки на живца
G01:14:17/model/100/60178/corradych
YA01:14:33/model/6027/3101797/тайм 100 лучших фильмов всех времен
G01:14:38/model/100/60178/corradych
YA01:14:54/model/1287/675944/ujkst
YA01:15:01/honda/408/127384/ўасвернус
YA01:15:32/model/4144/2142652/“урбонадув на шкоду
G01:15:41/model/100/60178/corradych
G01:16:12/model/100/corradych
YA01:18:18/kurilka/79/34177/телец это пиздец
G01:20:12/vw/1794/660885/Lingvo LMLE-8026-8100-0010-0094 инсталл€ционный код
YA01:20:26/honda/1477/365579/зизьге
YA01:21:29/vw/612/206687/фото олвэйз танго black
YA01:22:06/honda/430/134558/aнна дигуэс
G01:22:12/vw/1794/660885/Lingvo LMLE-8026-8100-0010-0094 инсталл€ционный код
YA01:22:14/model/1287/675944/ujkst
G01:24:11/vw/2115/793309/чюдовища
YA01:26:36/honda/430/134558/анна дигуэс
G01:32:21/model/881/481461/порно з шыхиризады
YA01:33:04/model/4391/2261266/времени мало свободного
G01:36:48/model/2844/1463124/скачать порно стелифона
YA01:37:03/honda/1001/276991/лужок пидорас
YA01:37:25/vw/1377/493158/сись
YA01:38:45/vw/585/197136/ огда в€зать сучку
G01:41:48/vw/4107/1527021/отсосать
YA01:43:41/auspuff/31/3730/MG RACE пламегаситель на ауди 80
G01:43:41/model/2844/1463124/скачать порно стелифона
G01:43:57/model/3640/1895457/ѕисичка
YA01:44:04/kurilka/132/59620/ƒ≈¬ј„ » ¬ „”Ћ ј’
YA01:44:16/model/4574/2349494ѕќ дл€ айфонов
YA01:44:16/model/4574/2349494/ѕќ дл€ айфонов
M01:48:33/model/5994/3083906/пь€на€ баба пизде не хоз€йка
G01:49:32/model/1614/842856/»√–ј¬џ≈ ј¬“јћј“џ
M01:54:23/megasquirt/3/840/Megasquirt 2.2
YA01:55:22/model/3307/1711015/кинонавинки
YA01:57:35/model/6896/3499989роуминг
YA01:57:36/model/6896/3499989/роуминг
YA01:58:01/model/4644/2388680/какашки во рту
G01:59:09/model/1714/893723/невесту трахнули
YA02:00:40/auspuff/26/ауди 80 бочка MG-RACE пламегаситель
YA02:02:39/vw/2427/924956/никрофил
YA02:02:41/honda/673/200466/тыбл€ть
M02:03:41/megasquirt/megasquirt
G02:04:30/model/3589/1869544/стоимость Aeroccino nespresso
YA02:05:35/kurilka/204/94381/ебонат натри€
YA02:06:25/model/4856/2495293/мчс на давыдковской
M02:07:17/model/679/376611/3d кинотеатр в меге химки
M02:08:43/kurilka/142/64759/смотреть луженые глотки
YA02:09:42/renault/51/13949/зоофели€
YA02:10:24/golflab/100/22854/сход-развал после замены тормозных дисков
YA02:14:31/model/2294/1177074лещенко прощай от всех вокзалов поезда
YA02:14:31/model/2294/1177074/лещенко прощай от всех вокзалов поезда
YA02:17:34/golflab/2/357/как правильно пользоватьс€ сцеплением
YA02:20:56/honda/434/135779/больша€ залупа в жопе
YA02:22:53/model/3107/1601109/любители школьниц
YA02:24:19/model/669/371236/какой заливать бензин фокус 1.8 с двигателем zetec
YA02:24:38/model/1828/954876/польшЄн
YA02:24:55/model/1825/953110/«дарова сел€не
M02:25:29/model/3339/1728647/залатые украшение
YA02:26:53/model/4630/2380787/влажные пилотки
YA02:29:17/model/3634/1892597/прочитать смс с чужого телефона
YA02:42:26/model/813/445572/ƒинара марьино
YA02:43:23/model/4630/2380787/влажные пилотки
YA02:45:09/model/2820/1449525/церковь на бауманской
G02:45:50/model/5139/2637165/Ёлондри€ Ћит
YA02:49:11/model/3864/2006175/слушать позвони мне позвони, позвони мне ради бога
YA02:53:36/honda/1487/367456/¬ насто€щее врем€ с вашего IP адреса уже идет скачивание
G02:59:16/model/5960/3067922/защечку
YA03:00:34/vw/819/юмор
G03:01:30/model/1386/728219/аргументыи факты/
YA03:01:51/honda/161/48994/ј001јј
G03:01:58/model/1386/728219/аргументыи факты/
YA03:03:27/kurilka/123/54808/ѕечи,камины,барбекюшницы
YA03:05:53/model/793/435100/твои руки пахнут винтовкой мосина
YA03:08:30/vw/3178/1217849/криденс
G03:09:59/model/5860/3018798/педофилы онлайн
YA03:10:40/nissan/17/5409/член ишака
M03:16:14/renault/38/10357/парнуха
YA03:17:58/vw/3042/1164779/девочки сосут мальчикам
G03:18:31/model/6230/3202650/штреймель
YA03:19:24/model/6079/3128395/айпи дс
YA03:29:22/renault/51/13949/зоофели€
YA03:32:09/model/4235/2187512/айтюнс дл€ айфона скачать бесплатно
YA03:32:30/honda/670/199389/пидор по-английский
G03:33:07/model/3138/1618323/даминирование
G03:38:36/model/1100/587185/матацыклы
M03:38:57/vw/3325/из чего готовитьс€ пенаблоки
M03:39:56/vw/666/226339/лучше быть "железной"леди или трогательной барышней?
YA03:43:39/model/3120/1608571/нельз€ высказывать свое мнение
G03:44:13/vw/1569/572605/ненавижу русских
YA03:46:25/vw/2007/ упить Lada 5.6 turbo
YA03:46:33/vw/2007/ упить Lada 5.6 turbo
G03:46:33/model/2412/1236719/готическа€ опера
YA03:51:53/model/3614/скачать бесплатно голые фотки телок в стрингах
M03:52:48/golflab/40/8074/карбюратор 2E Pierburg
YA03:57:51/model/1294/679077/как называетс€ поза раком
G03:59:20/honda/176/55277/как перестать дрочить
YA04:12:57/honda/155/47032/инцэст
YA04:15:57/honda/1321/339052/трансы тайланда
G04:23:50/model/1233/647951/температура диаре€ тошнота
YA04:29:05/model/4586/2355774ѕрограммы на нокиа 53-20
YA04:29:05/model/4586/2355774/ѕрограммы на нокиа 53-20
YA04:31:47/model/3854/2001251/бл€ди
YA04:34:12/model/1822/951487/сантафэ
YA04:35:26/renault/51/13949/зоофели€
YA04:44:53/kurilka/76/33014/зачем нужен петух
YA04:52:26/model/3846/1996847/ютуби
G05:00:12/model/1288/676474/макфрэш
YA05:06:11/model/2610/1339864/письки
YA05:09:00/vw/2787/1068341/холостые хоккеисты
YA05:11:05/model/6173/3174934/заставкин
YA05:13:27/model/4235/2187512/ айтюнс
YA05:23:34/honda/142/43558/порно россказ
YA05:44:26/honda/1340/342624/блюфиш
YA05:45:32/honda/1323/339283/canon гавно
YA05:50:40/kurilka/87/37569/стихи про надувных баб
G05:56:17/auspuff/8/1076/как сн€ть глушитель на civic
G05:57:43/model/3979/2064825/mooqla boobs
M05:57:51/model/545/309301/пидафил
G05:59:53/vw/1443/520832/порадовать+девушку
YA06:02:09/model/top100/top100 model
G06:12:08/boards/техника
M06:17:41/model/713/394479/‘орт ‘иеста
YA06:40:11/model/105/64092/\ баранины в кефире
M06:54:18/kurilka/85/36709/совецкие фильмы
M06:54:26/kurilka/85/36709/совецкие фильмы
YA06:54:59/model/5957/3066566/дойки фото
YA07:02:11/vw/2215/835546/символ стрелка рюмка
YA07:04:32/vw/3278/1252803/кинотеатр на мкаде
YA07:08:26/vw/2215/835546/символ стрелка рюмка
YA07:12:05/honda/1321/339052/трансы тайланда
YA07:13:53/golflab/84/19416/Ѕесконтактное зажигани€ ћихайлова
YA07:21:47/vw/2386/908039/кончили и умерла
YA07:28:50/vw/3890/1448462/сраные собаки
YA07:36:28/kurilka/119/52886/€ попробовал траву
YA07:37:40/model/1323/694764/ѕ“”шницы
YA07:41:51/model/480/272704/ƒевки в коротких юбках
YA07:43:56/honda/1321/339052/трансы тайланда
YA07:48:42/model/744/408755/пагода в саратове
M07:53:23/kurilka/61/25115/скачать бисплатно мультик
YA07:56:33/golf-stream/38/5622/замениа двигател€ 2e
G08:02:58/model/1714/893723/трахнули на свадьбе
YA08:10:31/model/2604/1336713/а ты не летчик а € была так рада
YA08:11:23/model/166/99095/голые мужыки
YA08:14:52/model/1553/813034/автор стихов прощай со всех вокзалов поезда уход€т в дальние кра€
YA08:15:08/kurilka/90/38991/кубинские извращенцы
G08:19:49/model/1714/893723/трахнули сразу на свадьбе
G08:19:49/model/1714/893723/трахнули сразу на свадьбе
G08:20:07/model/1714/893723/трахнули сразу на свадьбе
G08:25:57/vw/1350/481641/3B0 858 069
YA08:26:23/model/3115/1605753/фотки бл€дей
YA08:34:53/vw/1007/я хочу знать всЄ про ’отапыча
YA08:40:35/vw/1621/595055/тереза орловска€
G08:42:14/golfclub/92/21376/AUTOBODY.RU
M08:43:29/kurilka/87/37903/тетки в очках
YA08:43:30/honda/431/134723/ƒ≈¬ј„ » —ќ—”ў»≈
G08:45:09/vw/4081/холестерин тел€тена
YA08:45:44/honda/1502/370442/коса-русса€ краса
YA08:49:07/kurilka/198/91333/∆алкие людишки,прощайте
YA08:52:20/model/6014/3093862/грильбургер
G08:54:56/vw/987/347321/порнозоофили€
G08:57:53/vw/987/347321/порнозоофили€
YA08:58:15/vw/2445/932600/‘отосессии медсестер
G08:58:52/vw/987/347321/порнозоофили€
GO09:03:48/auspuff/14/установка резонатора на гольф 3
YA09:06:24/model/297/177224/знай это любовь с ней р€дом амур крыль€ми машет
R09:09:41/honda/874/кузовные детали на MAXUS
YA09:10:40/honda/445/138959/девушки в бекине
G09:16:29/vw/892/313038/—тритресеры
M09:17:19/model/3121/1609331/обрезаный хуй
G09:23:44/model/5835/3006362/ацилококцинум
YA09:24:04/golf-stream/29/4453/чип тюнинг AEE
YA09:28:49/golflab/34/6558/ставим брызговики на golf 2
YA09:34:24/model/2062/1067131/ѕрастетутки в Ќовосибирске
YA09:34:37/model/4636/2384242/петушок топчет курочку
G09:39:14/honda/81/25339/успокоешьс€
YA09:39:23/model/3595/1873033/–∞ –Ї—В–Њ —Б–µ–є—З–∞—Б –љ–µ –њ—М–µ—В? —В—Л —Б–Ї–∞–ґ–Є
YA09:43:12/model/3847/1997789/горат нурлат
YA09:44:42/model/5512/2834156/амексин
M09:46:30/model/545/309455/бисма
G09:48:08/model/6908/3505596/ты дрочиш
YA09:48:32/model/6136/3157625/жопень
G09:50:25/model/5121/2629671/нидрать
YA09:52:43/model/4412/2270691закачать музыку на айпод
YA09:52:43/model/4412/2270691/закачать музыку на айпод
G09:52:58/golf-stream/35/5333/пассат б3 дергаетс€
G09:54:14/vw/2380/905987/адамово €блоко рецепты
YA09:54:26/vw/3024/1156818/фотки дл€ онанизма
YA09:56:19/golf-stream/35/5333/диагностика motronik
G09:57:47/vw/2380/905987/ћаклюра рецепты
M09:57:50/model/149/90096/деревенские турфирмы
YA10:02:56/model/3854/2001251/бл€ди
G10:04:00/model/5270/2704359/гистемео
YA10:04:08/photo/12/3608/узкие дырки фото
YA10:05:44/model/1575/824447/что удлин€етс€ когда его берут в руки пропускают между грудей и засовывают в отверстие
YA10:05:58/kurilka/174/79826/свадебна€ кукла
YA10:08:53/honda/15/3596/?all=n/поставил в коленно локтевую
YA10:09:05/model/4612/2370716/€понки фото
YA10:15:46/auspuff/32/3797/пламегаситель на акцент
YA10:17:48/model/voting/¬агалище в картинках
YA10:18:08/vw/2385/907885/киски писки
M10:18:37/model/2605/1337152/андрю блейк
YA10:19:04/honda/1083/294246/косиножка
YA10:20:03/vw/855/сэкс 2 жэнчин видео
M10:21:49/kurilka/320/148786/стихи про летчиков
YA10:23:24/model/545/309301/пидафил
YA10:23:44/honda/812/232536/?all=nзоопорнуха
YA10:23:45/honda/812/232536/?all=n/зоопорнуха
YA10:23:46/model/2604/1336762/чо нельз€ есть беременым
YA10:30:48/model/462/262526/ќхуительна€ машина
YA10:30:50/model/6197/3187173/шыльдик
YA10:31:24/vw/1621/595055/тереза орловски
YA10:32:32/auspuff/13/выхлоп на BMW 34
YA10:33:21/model/152/91975/хуйдай
YA10:33:48/model/5250/2694330/зашивание девственной плевы
M10:35:54/vw/833/всЄ огрибах
YA10:36:53/koleso/7/412/ олпак на B5
YA10:37:22/vw/859/где сделать копию ключа BEAR-LOCK
YA10:37:42/kurilka/108/47119/ботинки нариман
YA10:38:03/kurilka/89/38836/” врат обител€ св€той, Ћермонтов, стихи
YA10:40:22/model/3333/1724473/blow job
YA10:43:44/model/3571/1860437/как делаетс€ малосольные огурсы
G10:43:59/honda/754/219073/асидиси
YA10:45:08/photo/3/777/zoombrowser ex скачать
M10:46:27/model/3332/1724099/ ак сварить куринный бульон
YA10:46:54/model/5994/3083906/бесплатное фото пь€на€ баба пизде не хоз€йка
YA10:48:18/model/1287/675944/ujkst
TB10:48:43/model/3848/1998305/спецнас
G10:49:12/golflab/17/2720/сколько стоит поставить стеклоподъемники
G10:50:17/vw/2216/836142/¬алькири€ руна
YA10:51:41/kurilka/108/47119/нариман ботинки
G10:52:21/moto/6/1352/chmoktya
G10:54:03/honda/705/208702/кюрлинг
YA10:55:07/model/6762/3437537/200 рублей за минет
YA10:57:03/kurilka/123/55342/гречка в теремке
M10:58:41/renault/13/3464/пожелани€ с добрым утром
YA10:58:46/honda/1321/339052/трансы тайланда
YA11:01:35/nissan/19/6305/модные гриндерсы
YA11:02:21/auspuff/32/3797/пламегаситель на accent
YA11:02:55/vw/3167/1213752/ ак посчитать куб
YA11:05:13/kurilka/320/148786/стихи про летчиков
G11:05:42/vw/4095/1522054/гомофилы
M11:05:53/kurilka/255/116961/сексуальные юпки
G11:06:01/kurilka/122/54151/ golietetki.ru
M11:06:58/golf-stream/39/5719/масла мобил 10¬40
YA11:07:24/model/129/79549/оргазм смотреть
G11:07:49/model/4671/2404161/туебень
YA11:10:10/golflab/72/16222/как крепить брызговики
YA11:10:41/model/4187/2163454/мультфильмы дл€ детей про поезд
R11:12:04/as/190/112108/фото мертвых людей
R11:12:21/honda/1028/фото мертвых людей
YA11:14:32/model/1287/675944/ujkst
YA11:17:17/kurilka/166/75571/что такое попиз
YA11:17:22/model/175/104426/понедельники вот наша плата
YA11:17:33/auspuff/27/3206/плам€гаситель двс
YA11:18:36/kurilka/293/135458/больша€ попа красивой блондинки
YA11:19:01/kurilka/174/80071/пиписьки у мальчиков
M11:19:29/honda/176/55193/арбуз в жопе
YA11:19:40/model/3854/2001251/бл€ди
YA11:19:47/honda/139/afto laif
YA11:20:19/honda/77/23992/высрцкий песн€ про физкультуру
M11:20:55/honda/1481/366324/стримзона
YA11:21:22/model/175/104429/"понедельники-вот наша плата"
YA11:22:51/vw/2721/1042179/mso.dll
YA11:24:04/model/24/14135/ куртка американских летчиков
G11:24:45/vw/2693/1031791/проблеме € не люблю совсеме
YA11:28:14/photo/3/777/zoombrowser ex скачать
M11:30:13/vw/3563/1346978/гуглмап
YA11:31:06/honda/445/138959/девушки в бекине
YA11:31:33/model/6167/3172108/–еслер фильм
YA11:31:48/vw/1370/489977/–еальные истории зоосекса
YA11:32:28/kurilka/170/77642/сломалс€ Sololift
YA11:33:58/vw/104/41978/получить номер аськи
M11:34:40/model/4630/2381061/прастетутки
YA11:35:14/model/4518/2319219/скачать последние новинки зарубежной музыки
M11:38:23/vw/2383/907009/почему коты люб€т валерь€нку?
YA11:38:55/vw/3912/1455334/децкии игры
M11:39:21/model/2588/1327505/голые мущины
YA11:39:54/honda/434/135779/залупа в жопе.
YA11:39:59/honda/812/232536/?all=nзоопорнуха
YA11:39:59/honda/812/232536/?all=n/зоопорнуха
YA11:40:28/model/5240/максим нео
G11:40:57/model/2801/1439558/рыбный рынок п€тницкий
G11:41:44/model/6201/3189512/"металлический привкус на €зыке" печень
G11:42:38/model/6201/3189512/"металлический привкус на €зыке" печень
M11:43:31/model/790/434057/∆ќ—“ ј≈ ѕќ–Ќќ
YA11:44:03/honda/1073/292383/колотушка тук-тук-тук спит животное паук скачать
YA11:44:10/model/1065/570805/вас2110
YA11:44:21/model/1065/570805/вас2110
YA11:46:00/honda/434/135779/залупа в жопе.
YA11:47:47/model/3111/1603511/ √Ѕист
G11:48:35/model/5143/2638980/blonda1234
YA11:49:39/vw/2440/929981/Ѕендеровец
YA11:50:32/vw/2570/983536/скачать бабушка с дедушкой р€дышком
G11:51:17/model/5668/2918063/клевые статусы
YA11:51:30/megasquirt/2/595/мегаскирт установка
YA11:53:14/boards/мегаскирт установка
YA11:53:21/honda/679/202337/fdnjnjntv
YA11:53:57/model/780/428831/пис€ в кисю
YA11:54:15/model/2820/1449525/церковь на бауманской
YA11:55:01/vw/71/29300/как увеличить клиренс гольф 3
YA11:56:16/honda/420/131275/как доехать до внуково аэропорт
YA11:56:35/model/3886/2016914/скачать страх и ненависть в ласвегасе бесплатно
YA11:56:36/model/3886/2016914/скачать страх и ненависть в ласвегасе бесплатно
YA11:56:46/honda/1324/339572/ѕќ–Ќќ„ј“
M11:58:34/vw/3278/1252803/кинотеатр титаник синема телефон в вейпарке
M11:59:50/model/3848/1998305/спецнас
YA12:00:11/photo/21/6336/фото страшных девок
M12:00:41/vw/3278/1252803/кинотеатр телефон в вейпарке
YA12:01:46/honda/1321/339052/трансы тайланда
YA12:02:54/model/4353/2242962/фирари
YA12:03:03/model/4353/2242962/фирари
YA12:03:30/vw-club/47/3842/какой карбюратор лучше дл€ golf
YA12:04:24/model/1153/612373/какой карбюратор лучше дл€ golf
G12:06:29/vw/1180/415564/умные кроссовки adidas
G12:08:29/model/1133/602516/7devok
R12:09:32/auspuff/24/2924/двигатель 9ј
YA12:09:55/kurilka/120/53488/хинкали в микроволновке
M12:10:29/honda/183/57782/посмотреть порнуху
YA12:12:23/honda/431/134889/прета порте
G12:15:10/golflab/62/13803/http://www.elcats.ru/audivw/vag5
G12:15:19/vw/2047/766115/п€терчатка
M12:15:27/kurilka/293/135184/тела тетек
R12:15:32/fishing/2/265/как насаживать живца
YA12:16:20/kurilka/252/115095/девка с коровой
YA12:16:40/kurilka/22/6366/сэкс пожилых
YA12:18:16/model/3899/2023128/потомки чингиз хана
YA12:19:11/honda/1451/361443/телка
YA12:23:31/model/1286/675396/праститутки в орле
YA12:24:15/honda/1451/361443/телка
YA12:25:09/kurilka/99/43084/ƒомодедово круглосуточна€ сто€нка
R12:25:49/model/1247/654545/вапрос путину
YA12:27:54/model/3113/1604260/ƒомодедово круглосуточна€ сто€нка
R12:27:57/model/1247/654545/вапрос путину
YA12:28:26/honda/1321/339052/трансы тайланда
G12:28:42/vw/2380/905987/адамово €блоко как готовить
YA12:28:43/model/3424/1778339завалю снегом говорит мне небо
YA12:28:44/model/3424/1778339/завалю снегом говорит мне небо
YA12:28:48/kurilka/89/38707/техподдержка philips
YA12:29:51/model/1065/570805/вас2110
M12:30:18/model/3672/1911708/аднакласники
YA12:31:00/kurilka/171/77772/заморозка лисичек на зиму
YA12:31:33/model/4636/2384164/все про овнов
M12:32:37/model/4146/2143700/йодова€ сетка
G12:33:41/model/4454/2290236/как отмазатьс€ от гибдд
G12:34:49/model/6014/3094041/фегурное катание
YA12:35:54/honda/1321/339052/трансы тайланда
YA12:36:22/vw/4079/1515939/горелки ацытеленовые
YA12:37:41/model/3599/1875205/ануслизинг
YA12:40:13/model/4502/2313230/смотреть порна
M12:40:28/kurilka/192/88270/как сделать из однушки двушку
G12:41:17/model/2942/1516013/оригинальные сказки братьев гримм
YA12:41:22/vw/3865/1440059/ƒрель метаба
YA12:43:20/honda/221/71042/клетки на заказ дл€ хамеков
M12:43:37/model/6337/3252146/чЄ чЄ опа ниху€
YA12:44:52/vw/65/26481/кишкоблуд
YA12:44:53/vw/65/26481/кишкоблуд
M12:46:59/model/541/306705/блондинки d трусиках
YA12:47:08/kurilka/236/108303/а маленький антошка нат€гивал
YA12:49:43/model/1824/952670/ www.agentprovocateur.com
YA12:50:03/model/4716/2426066/ибалка
YA12:50:27/honda/304/96262/?all=n/сколько от москвы до бр€нска
YA12:51:03/model/6513/3330824/лечени€ от трипира
YA12:52:08/model/3870/2009378/—канворд с картинками и ответами
YA12:52:29/golflab/97/22329/рулевые наконечники на ауди 80 б 4
YA12:53:00/auspuff/1/82/пламегаситель на VW B3
N12:53:50/as/329/какрты sd 32
YA12:54:23/model/1583/829436/стрижки до плеч
YA12:56:26/model/3789/1968917/подгл€дывал как они
G12:56:36/model/4690/2413737/блоуджоб это
M12:57:03/model/2068/1069872/“Єлка люб€ща€ всЄ на свете
YA12:57:28/vw/2385/907885/сиски и писки
YA12:58:04/golflab/122/27162/замена коробки автомат на ручную
YA13:03:06/golflab/40/8074/карбюратор pierburg 2e
G13:03:16/vw/1571/573850/как пользоватьс€ ксероксом
YA13:03:26/golf-stream/2/354/разбор в сзао
YA13:04:09/model/540/305970/комплимент про губы
YA13:06:08/kurilka/320/148786/стихи про стюардесс
YA13:06:12/kurilka/252/115009/–≥–і–µ –≤—Л —Б–Љ–Њ—В—А–Є—В–µ –њ–Њ—А–љ—Г—Е—Г?
YA13:07:22/model/4649/2391755/калов дьюти 4
G13:07:33/model/4246/2192793/писище
YA13:07:54/model/542/307634/кто какую актрису трахнул
YA13:13:09/model/2593/1330452/матацыклы
YA13:13:29/model/1568/821233/ћаи аднакласники
YA13:15:07/vw/3278/1252803/кинотеатр на мкаде
G13:16:54/vw/2755/1055114/как перестать онанировать
YA13:17:03/model/3248/1678739/нупагади
G13:17:34/vw/3122/1197310/гольфы фото
YA13:19:30/honda/142/43558/порно россказы
M13:20:15/model/2598/1333265/Ќайти песню со словами розовые розы —ветки —околовой
YA13:20:18/kurilka/198/91129/стеклимавто
YA13:20:49/kurilka/198/91129/стеклимавто
YA13:20:55/kurilka/198/91129/стеклимавто
G13:21:40/tushkan/14/2156/где л€мбда-зонд на Golf 3
G13:21:55/tushkan/14/2156/где л€мбда-зонд на Golf 3
YA13:22:32/model/2588/1327505/голые мущины
YA13:22:33/model/6128/3153567/жопища
YA13:22:53/model/4145/2142921/деревенские бл€ди
YA13:23:07/vw/2425/923929/на чЄм смотреть mp4
YA13:24:17/golflab/89/20633/golf 2 1.3 провода
M13:24:46/vw/617/208456/шутка дл€ ƒимы
YA13:25:09/kurilka/335/155366/очень хочетс€ уехать но все родственники тут
YA13:25:41/model/3853/2000871/потер€ чувствительности при сексе
YA13:28:44/golflab/94/21827/установка обратного выжима сцеплени€
YA13:32:08/honda/1355/346078/девку на кол
YA13:33:01/nissan/22/7243/залупа
YA13:33:48/honda/1324/339489/сдохла.сдыхаю
YA13:34:15/nissan/22/7243/залупа
M13:34:52/kurilka/108/47413/пидоразы
YA13:35:31/golflab/13/1993/разборки финл€ндии
R13:36:17/as/193/114105/ анимайзеры
YA13:36:57/model/5334/2738890что происходит с человеком когда он умирает
YA13:36:57/model/5334/2738890/что происходит с человеком когда он умирает
G13:36:58/model/2694/1386794/задрод
YA13:37:47/golflab/40/8074/что происходит с человеком когда он умирает
M13:38:40/golf-stream/10/1697/медленно сбрасывает обороты
YA13:38:52/golflab/135/29286/переборка двигател€ стоимость
YA13:41:43/model/5512/2834156/амексин
YA13:42:23/vw/3615/1364624/?all=n/√исловед Ќ‘5
G13:43:04/vw/3438/1308010/инцыфолит
G13:43:16/vw/3438/1308010/энцыфалит
M13:44:47/model/6669/3397333/бес трусов
G13:45:16/model/4928/2533370/ахуенный фильм
G13:45:43/vw/3294/1258004/ахуенный фильм
G13:45:46/honda/1220/320079/залупейка
YA13:47:07/vw/3743/где можно купить катушку дл€ триммера мтд-790 в москве.
YA13:47:16/model/4144/2142239/абсолютли
YA13:47:40/vw/1370/489965/евросеть на можайке
R13:49:42/honda/408/127690/Ўварцкопфф
G13:50:04/honda/812/232536/зоопорнуха
M13:50:20/vw/1362/486881/see-porno
YA13:50:24/model/769/421710/вещи из латекса
YA13:51:48/honda/282/89875/мен€ выпороть мама
G13:56:44/model/2436/1248502/лупинг
YA13:56:50/golfclub/25/замена abs на гидравлику на wv
YA13:57:23/model/5340/шмайсер штурм 9
YA13:57:25/model/6030/3102969/нарисованные туфли
YA13:58:18/golflab/5/844/салонный фильтр la 19
YA13:58:20/vw/4073/1513537/мангал чертежи
M13:58:36/model/1836/959217/запах у баранины
M14:01:24/honda/1190/314778/секс с жывотными
M14:01:29/vw/3829/мистердорс
M14:01:33/kurilka/101/43897/глицын
YA14:01:45/model/440/250600/ћолода€ медсестра в эту ночь оп€ть дежурит в морге
M14:01:49/honda/1190/314778/секс с жывотными
YA14:01:52/model/3851/1999763/этот парень был из тех кто просто
YA14:01:58/model/5994/3083906/пизде не хоз€йка
YA14:02:42/honda/159/48173/порно учителки
YA14:03:42/model/2604/1336713/а ты не летчик а € была так рада скачать
YA14:04:03/honda/183/57782/ѕќ—ћќ“–≈“№ ѕќ–Ќ”’”
M14:06:28/kurilka/292/135053/посадили жопой на кол
YA14:06:57/golflab/75/17167/простой бизнес дл€ одного
G14:07:06/vw/235/90686/витамин радости
YA14:07:21/model/122/74498/who do you need who do you love when you
YA14:08:14/vw/3285/1255157/даешь маладЄш
G14:09:17/model/3564/1857050/ганакок
YA14:10:24/model/805/441705/гыгыгыгыгы
YA14:11:05/honda/27/7795/пелотка
G14:12:39/honda/574/175904/порноха
G14:13:11/vw/3696/1389243/хочу подрачить
YA14:15:15/renault/51/13949/зоофели€
YA14:16:29/model/4630/2380787/влажные пилотки
YA14:16:31/model/5512/2834156/амексин
YA14:17:14/golf-stream/6/1161/амортизаторы дл€ гольф
YA14:17:20/honda/1342/343067/женские гинеталии
M14:18:22/kurilka/105/45833/рукоблуство
YA14:18:54/honda/1010/279043/пидоры в древней греции
YA14:20:15/model/1845/в, скунцев, не дл€ мен€ придЄт весна
YA14:20:36/model/6142/3160726/секс старушки
M14:21:31/vw/3653/1376203/что-нибудь ню
YA14:23:29/renault/51/13949/зоофели€
M14:23:39/model/2856/1470269/Ѕренда ƒжейс
YA14:25:12/honda/1348/344629/моментальный сепсис
G14:28:43/honda/385/120757/ѕодзалупный творожок
G14:30:37/model/585/329848/писн€ры
G14:32:26/model/5428/2790138/Ѕольшой —пиралевидный √елиотрон
YA14:33:03/model/6845/3476225/—≈ — Ќј јƒЌ” Ќќ„№
YA14:34:57/model/1575/824447/–І—В–Њ —Г–і–ї–Є–љ—П–µ—В—Б—П, –Ї–Њ–≥–і–∞ –µ–≥–Њ –±–µ—А—Г—В –≤ —А—Г–Ї–Є, –њ—А–Њ–њ—Г—Б–Ї–∞—О—В –Љ–µ–ґ–і—Г –≥—А—Г–і–µ–є –Є –Ј–∞—Б–Њ–≤—Л–≤–∞—О—В –≤ –Њ—В–≤–µ—А—Б—В–Є–µ?
YA14:35:36/kurilka/416/196602/"дресс код в газпроме"
G14:36:26/model/4392/2261724/нет фасилитиз
YA14:37:59/honda/285/90460/дольчигабана
YA14:38:28/model/1304/684919/моделы сотки
N14:38:41/renault/51/13949/зоофели€
YA14:39:44/honda/1211/317868/ледовый дворец в крылацком
YA14:40:05/vw/2385/907885/сиски и писки
G14:40:12/vw/1434/516849/прикольные погон€ла
YA14:40:52/honda/1321/339052/трансы тайланда
G14:40:58/vw/2380/905987/адамово €блоко рецепты
YA14:41:15/renault/51/13949/зоофели€
YA14:42:39/vw/2094/буры скважены
G14:43:22/bmw/3/1138/вест коуст кастомс
YA14:46:12/kurilka/150/68266/хачье
YA14:46:29/kurilka/174/80050/чем отстирать зеленку
G14:46:39/model/2825/1451738/как драчить
YA14:47:21/model/2820/1449525/церковь на бауманскойу
YA14:48:45/honda/1214/318299/сиськи сиськи сиськи
YA14:49:12/auspuff/23/2871/пр€моточный выхлоп на гольф 3
YA14:51:07/model/5512/2834156/амексин
YA14:51:37/honda/662/197524/пегинг
YA14:53:44/kurilka/102/44608/ввв ленинград спб точка ру скачать
YA14:53:54/honda/692/205486/кашолки
YA14:54:02/model/2608/1338510/в гост€х у скаски скачать
YA14:55:02/model/3336/1726528/www.horology.ru
YA14:55:54/honda/1321/339052/трансы тайланда
YA14:56:26/kurilka/133/60053/антиджоб
Y14:56:49/vw/944детское порно
G14:58:12/vw/1413/508392/априоре
YA14:58:19/kurilka/40/15810ƒубовый √ай Naked-Live
YA14:58:19/kurilka/40/15810/ƒубовый √ай Naked-Live
G14:58:56/model/3537/1842302/х999хх
G15:02:50/vw/3701/1390804/чистка гланд
G15:03:42/vw/3701/1390804/чистка гланд
YA15:04:23/model/3808/1977867/гарипотер
YA15:04:35/model/1553/813210/мразота
YA15:05:17/model/95/56992/за отличную стрельбу
M15:06:05/model/1303/684242/казарменный юмор это
YA15:06:11/model/2311/1185269/узи маузер
YA15:06:24/model/2311/1185269/узи маузер
YA15:06:34/model/2311/1185269/узи маузер
YA15:06:38/model/2311/1185269/узи маузер
YA15:07:35/vwagainst/47/14700/схема секвентального механизма
YA15:09:32/model/4146/2143700/йодова€ сетка
YA15:10:58/honda/656/195726/подрочить на девушку
YA15:12:45/model/4649/2391755/коды на кал оф дьюти 4
YA15:15:11/model/798/438033/куннигулус
G15:15:18/model/5534/2846876/"как сварить картошку в микроволновке"
N15:16:58/nissan/17/5396/агромный член
M15:18:32/model/53/w129 проблема с hardtop
YA15:18:43/model/4115/2128759/гиганские члени
YA15:20:08/model/3916/машыны,мазда,красивыи,
YA15:20:42/honda/728/214187/как € ей лизал
M15:22:09/golflab/1/213/ омплект дл€ замены задних барабанных тормозов на дисковые.
M15:23:57/vw/2440/930120/полифепам
G15:25:11/model/5260/2699147/пиздюлинки
YA15:25:40/model/252/150111/клофелин бабоукладчик
M15:26:26/koleso/б у резина 235 65 R18
YA15:26:27/vw/2399/912950/девайс к мобиле
YA15:26:27/kurilka/155/70272/грудь шестого размера
YA15:27:19/model/297/177224/это любовь с ней р€дом амур крыль€ми машет скачать
N15:27:35/renault/51/13949/зоофели€
YA15:28:08/honda/312/98779/?all=n/пь€ные немки
G15:29:30/model/5971/3071723/как узнать тип дома
YA15:31:02/nissan/17/5409/„лен у ишака
G15:31:56/model/5860/3018798/ѕедофилы онлайн
YA15:32:23/nissan/25/8138/жрет говно
YA15:32:50/honda/727/213974/форд експедишен 2009
YA15:33:23/model/1581/828042/хонда акорт
YA15:33:56/kurilka/133/60053/www.trashjob.ru/.
YA15:35:02/renault/51/13949/ зоофели€
YA15:35:46/kurilka/76/33014/зачем нужен петух
YA15:37:39/golflab/107/24273/чертеж распорки стоек
M15:37:40/golflab/95/22084/двигатель 3а
YA15:38:49/golfclub/27/4655/повышенный расход топлива RP
M15:39:15/kurilka/194/89361/проезд по обочине аварии
YA15:42:03/honda/434/135770/залупа конска€
YA15:42:49/honda/849/240701/?all=n јцтека на Ќовослободской
YA15:42:49/honda/849/240701/?all=n/ јцтека на Ќовослободской
G15:44:11/model/4419/2274156/вагинай
YA15:44:48/kurilka/79/34177/телец это пиздец
YA15:46:08/model/3590/1870054/ебать так королеву
YA15:46:48/model/5994/3083906/песн€ пь€на€ баба пизде не хоз€йка
YA15:47:09/renault/44/12225/анекдот чпок добрый вечер
YA15:49:05/golfclub/46/9803/ олпачок ступицы на литой диск VW
YA15:50:17/model/1551/811972/полшишки
YA15:50:40/model/1291/677484/где находитс€ удмурти€
YA15:54:00/kurilka/132/59715/порошок рефлект
YA15:54:59/vw/3344/1274186скачать бесплатно Dire Strates
YA15:55:00/vw/3344/1274186/скачать бесплатно Dire Strates
YA15:55:52/model/2859/1471723/скачать бесплатно Dire Strates
YA15:56:41/model/1542/807701/—≈ — ¬ћјЎџЌ≈
YA15:57:51/model/1829/955274/можно сместить пупок
YA15:57:55/model/4613/2371186/порномодель феррари
YA15:59:27/kurilka/123/55063/установка доп оборудывани€ на хонда цивик
YA16:00:31/model/1286/675316/дигинират
YA16:01:41/honda/689/205062/ризиноматор
M16:01:51/model/4614/2371550/бальшие сиськи
YA16:01:58/honda/689/205062/ризиноматор
YA16:02:04/honda/689/205062/ризиноматор
M16:02:22/renault/51/13949/зоофели€
YA16:03:26/model/3885/2016217/гар€чие сиськи
M16:03:30/model/3992/тотал рейс
YA16:03:40/model/3885/2016217/гар€чие сиськи
YA16:03:44/vw/2453/935795/светка соколова текст песни
M16:03:44/model/786/432341/’орошый секс
YA16:04:42/honda/1078/293247/где сделать осаго
YA16:04:43/honda/650/194339/www.dom2.ru
G16:05:18/model/1550/811535/рейбен очки
YA16:05:20/model/3873/2010600/эй мор€к ты слишком долго плавал mp3
M16:06:07/model/3463/1802638/джинсы с мотнЄй
YA16:06:22/model/1065/570523/мой трактор поле переедет
YA16:06:57/model/166/99095/голые мужыки
YA16:07:14/kurilka/133/60053/антиджоб
G16:09:34/model/3566/1857690/как мастурбировать
YA16:09:44/model/1927/ Ќижэгородский сайт
G16:09:53/vw/3696/1389243/€ хочу подрочить
M16:10:16/vw/458/161306/чем глина лучше пластелина
YA16:10:31/model/4700/2418324/деревн€ залупка
YA16:11:28/honda/154/46795/cjcen
YA16:13:43/model/447/254651/разговорник италь€нский матерный
M16:14:43/model/2890/1488195/анекдоты про ƒракулу
YA16:18:58/vw/2480/945017/панталоны с начЄсом
M16:19:52/model/4146/2143398/как перестать есть объедатьс€
G16:20:54/model/4091/2117427/ADNAKLASNIKI
G16:21:28/koleso/7/385/otard xo 55 москва
M16:22:24/kurilka/193/88563/шви€ портниха
M16:22:25/model/6654/3390954/ƒецкий квадрацикл
M16:22:36/golflab/85/19656/б/у спорт инвентарь
YA16:23:15/golflab/138/29716/радиатор печки Ѕ3
YA16:23:38/model/411/236816/замерзну,заболею и умру
YA16:23:58/model/3334/1725206/какой двигатель на Ўкода ќктави€ “ур 8 клапанный или 16 клапанный
YA16:25:49/honda/1321/339052/трансы тайланда
YA16:26:45/model/1287/675944/ujkst
YA16:27:15/model/1002/543325/секс с сабаками
M16:27:58/model/1305/685944/ƒрочиво
G16:28:35/vw/2380/905987/адамово €блоко рецепты
YA16:28:48/model/1009/546611/ девушка в платьишке
YA16:29:36/kurilka/46/18361/¬апросы правил дорожного движени€ 2009
YA16:30:09/kurilka/79/34006/ѕозы дл€ ћинета и куни
YA16:33:37/honda/1321/339052/трансы тайланда
G16:33:48/model/обсудим авто
YA16:34:45/model/6142/3160726/—екс старушки
YA16:35:25/honda/408/127378/ п€лотка
YA16:35:34/model/1065/570523/мой трактор поле переедет
YA16:35:34/kurilka/108/47119/ботинки нариман
YA16:35:41/model/4116/2128993/как пожарить подосиновики
YA16:35:47/vw/59/23994/девиз vw
YA16:35:48/kurilka/108/47119/ботинки нариман
YA16:35:56/kurilka/108/47119/ботинки нариман
YA16:35:57/kurilka/108/47119/ботинки нариман
YA16:36:05/model/2580/1322971/когда перестает расти размер ноги
YA16:36:27/golflab/137/29599/подшипник гидроусилител€ vw
YA16:36:31/golflab/42/8525/диагностика впрыска RP
G16:37:42/vw/2380/905987/рецепт настойки из маклюры
YA16:37:56/model/723/399303/порно с жирнами
YA16:38:39/model/744/408755/пагода в саратове
YA16:38:46/golflab/97/22392/ремонт кулисы golf 2
YA16:39:25/golflab/97/22392/ремонт кулисы golf 2
YA16:39:26/16v/6/объем камеры 16ве
YA16:39:54/vw/3799/диско диско партизаны
G16:41:23/vw/3766/джынсовки фото
YA16:42:03/model/1824/952670/www.agentprovocateur.com
YA16:42:35/kurilka/324/151032/после j,tlf [jxtncz сладкое -беременна
G16:42:43/model/435/248754/фистинк
YA16:43:10/model/744/408755/пагода в саратове
YA16:43:43/vw/177/70059/убирает запах котов
YA16:44:20/model/2311/1185269/”зи ћаузер
YA16:44:37/honda/1477/365523/беркова
YA16:44:44/model/3334/1724857/сасок
YA16:45:21/model/1294/679215/купить машину парше
YA16:45:54/vw-club/46/3828/–ј—Ў»‘–ќ¬ ј  ќћѕЋ≈ “ј÷»» ѕќ VIN Ѕ≈—ѕЋј“Ќќ
G16:46:56/vw/3643/1373491/голые мущины
YA16:48:23/honda/695/206247/планировка маленькой комнаты
G16:48:24/model/5668/2918063/статус клЄвый
YA16:48:47/model/1923/умо коллекционе
YA16:49:29/model/5665/2916338/xthyst l;bycs rjhbxytdst ,jnbyrb
N16:49:50/kurilka/86/37007/когда нахуй погода нормальна€ будет
YA16:50:18/photo/21/6336/фото страшных девок
YA16:50:29/tushkan/14/2094/хрустит коробка с первой на вторую на гольфе 5
G16:50:42/model/4958/2547863/качать €годицы
YA16:52:25/kurilka/122/54673/сколько жаритьс€ печень гов€жь€
YA16:52:40/golflab/137/29566/—колько шаровых в гольф 3
AP16:53:23/model/1941/1014284/зассыхи
YA16:54:26/model/2310/1185043/нетупика
YA16:54:30/vw/4015/1493959/скриммер
YA16:59:40/honda/183/57782/посмотреть порнуху
G17:00:17/model/2942/1516013/сказки братьев гримм оригинальный перевод
YA17:00:34/vw-club/31/2679/код краски по vin
YA17:01:11/golf-stream/12/1934/как проверить уровень масла в коробке golf 3
YA17:02:29/auspuff/30/3573/купить флейту длушител€
YA17:04:48/nissan/21/6699/мтс нас чешут миллионы
M17:06:22/kurilka/102/44608/песн€ со словами ввв ленинград,ввв точку ру
YA17:06:37/kurilka/105/45665/казаки и р€женые
M17:06:38/renault/51/13949/зоофели€
YA17:07:58/kurilka/102/44538/€ календарь переверну и снова третье сент€бр€
G17:08:00/model/2547/1305189/объект дл€ дрочки
YA17:08:34/model/6243/3209413/с пидарами не пьем -футболка -кружка -майка
YA17:08:54/kurilka/159/71899/где оплачивать сто€нку в шереметьево
R17:10:11/model/1237/649877/кончил 2 раза
YA17:10:36/auspuff/13/√лушитель √ольф-3 variant (резонатор)
YA17:12:00/honda/1324/339572/порночат
G17:13:21/vw/2134/800523/“ќрмоза не откажут на спуске
YA17:14:09/kurilka/159/71899/где оплачивать сто€нку в шереметьево
YA17:16:56/honda/637/191236/что нужно делать если завещание оспорено
YA17:19:20/model/1287/675944/ujkst
YA17:19:43/model/2312/1186031/бл€дска€ дорожка
YA17:19:56/golf-stream/22/3499/NGK BUR6ET
YA17:20:26/model/4630/2381061/прастетутки
YA17:20:30/model/4320/2227516/нокиа 8800а
M17:21:24/model/3338/1727905/лазерное шоу жан мишель жар в москве
YA17:21:38/model/2312/1186031/Ѕл€дска€ дорожка
M17:23:04/honda/142/43558/порно россказы
G17:23:29/vw/2380/905987/јдамово €блоко рецепт приготовлени€
YA17:24:35/model/2604/1336713/а ты не летчик а € была так рада текст
YA17:25:28/kurilka/322/149411/стакан спермы
G17:26:42/golflab/48/10185/koni special
YA17:26:59/vw/3344/1274186скачать музыка в DTS
YA17:26:59/vw/3344/1274186/скачать музыка в DTS
YA17:27:47/honda/15/3475/deviantclip.com
YA17:28:24/honda/181/56920/рыжа€ пилотка
YA17:30:44/model/508/играть в матацыклистав
G17:30:52/honda/135/41507/как можно выебать бабу
G17:31:08/model/2323/1190885/пашалим
YA17:32:59/model/6877/3491489/macal jacsan
YA17:33:02/model/3854/2001251/бл€ди
YA17:34:06/vw/3563/1346978/гуглмап
M17:34:39/model/744/408755/ѕј√ќƒј —ј–ј“ќ¬ј
YA17:34:59/model/3822/1985784/волосатые киски из трусов
YA17:36:42/model/3425/1779547разбитость после сна
YA17:36:43/model/3425/1779547/разбитость после сна
YA17:36:54/renault/14/3749/икзибит
M17:37:02/golflab/140/29996/AUDI 80 B3 «амена переднего амортизатора
YA17:38:38/model/3822/1985784/волосатые киски из трусов видео
YA17:39:33/vw/2259/854260/педерасы
YA17:40:21/model/2820/1449738/педерасы
YA17:40:28/model/3754/бетанируем на дачи
YA17:40:39/model/2610/1339843/сиськи максим
YA17:40:59/golflab/49/10425/как мен€ть салинблоки
YA17:41:01/golflab/49/10425/как мен€ть салинблоки
YA17:41:13/vw/3131/касметалоги€
YA17:41:17/vw/3131/касметалоги€
AP17:41:54/model/2149/1108074/мазь левомеколь
M17:43:01/model/2860/1472606/не могу забеременить помогите
M17:43:14/vw/3046/1166044/лидниковый период
YA17:43:14/model/6085/3131155/поесть хаши в москве
M17:43:32/golflab/27/4740/ты не повершь
N17:44:23/vw/595/200822/sisi.ru
G17:46:02/model/4724/2429896/инсталлер пишет Package download failed
G17:46:22/model/4724/2429896/инсталлер пишет Package download failed
YA17:46:54/model/1294/679566/ ому можно продать паспорт
YA17:49:02/model/4116/2128993/как пожарить подосиновики
G17:49:08/model/4724/2429896/инсталлер пишет Package download failed
M17:49:51/honda/183/57782/посмотреть порнуху
YA17:50:51/golflab/128/28172/характеристика кпп гольф2
YA17:51:53/honda/1233/323446/габубу
YA17:53:06/golflab/21/3392/—З—В–Њ —В–∞–Ї–Њ–µ –ї–Њ–Ї–µ—А–∞ –љ–∞ –∞–≤—В–Њ? —Д–Њ—В–Њ
M17:53:30/renault/51/13949/зоофели€
YA17:53:38/photo/22/6752/обработка фоток дл€ эмо
YA17:56:36/golflab/40/8074/характкристики карбюратора Pierburg
M17:57:38/model/4879/2507666/Ћюбите девочки простых романтиков, отважных летчиков...
YA17:58:40/model/4505/2314333/джелбрейк
G17:59:19/honda/385/120757/подзалупный творожок
YA18:00:41/model/2602/1335665/как украсить сиськи
G18:02:29/vw/2307/875114/картодром на савЄловской
YA18:02:30/honda/1001/276985/—айты с порнухой малолетки
YA18:02:32/model/4270/2203813скачать конвертер mpeg4 бесплатно
YA18:02:32/model/4270/2203813/скачать конвертер mpeg4 бесплатно
G18:03:18/vw/2983/1140954/карта москвы знаки
YA18:03:20/model/2610/1339864/письки
YA18:04:28/model/149/90198/цены на новые джыпы
M18:05:10/vw/3306/1262175/голые мальчки
YA18:05:44/honda/1042/286272смотреть мультфильм алладин
YA18:05:44/honda/1042/286272/смотреть мультфильм алладин
G18:06:29/vw/3643/1373491/√олые мущины
G18:09:47/model/3246/1678190/вы не верьте что живу € как в раю
YA18:10:36/model/3865/2006783/тан таран тан та таран
G18:10:38/model/2933/1510776/палюции
YA18:11:55/kurilka/120/53488/как варить хинкали
YA18:13:08/vw/2378/904918/хустлер
M18:13:25/model/2587/1327408/темно синий мужской костюм в тонкую полоску
YA18:13:29/kurilka/293/135497/сметана дл€ эрекции
YA18:13:41/honda/10/2220/если натерла стрингами
M18:14:22/model/5153/2643778черный добрый сутенер
M18:14:22/model/5153/2643778/черный добрый сутенер
G18:14:31/model/5973/3072746/трактор своими руками
G18:15:43/model/1156/613840/выйду на холм куль поправлю
G18:15:45/model/1156/613840/выйду на холм куль поправлю
YA18:16:05/model/2398/1229729/сиски прав€т миром
YA18:17:57/model/2588/1327505/√олые мущины
M18:18:16/honda/1094/296285/сальмо
YA18:18:40/model/3281/√олые мущины
YA18:19:39/model/6398/3280301/как отказатьса€ от почтового €щика
M18:19:50/honda/142/43558/порно россказы
YA18:20:03/renault/51/13949/зоофели€
YA18:20:04/renault/51/13949/зоофели€
G18:20:21/model/4774/2455466/бхавагат гита
YA18:20:38/model/6398/3280301/как отказатьса€ от почтового €щика
YA18:21:53/model/401/вокруг пениса фото работа
YA18:22:15/vw/2454/936279/ћћј, ћ“ЅЁ
G18:23:41/vw/1123/393712/извруквруки
YA18:23:56/golflab/92/21278/–Т—Л–Ї–Є–љ—Г–ї–Њ –Љ–∞—Б–ї–Њ —З–µ—А–µ–Ј —Й—Г–њ?
M18:25:16/model/4508/2316070/как делать венегрет
YA18:25:17/golflab/66/14649/двигатель vr6 на гольф
G18:26:19/model/4085/2114356/ачкуешь
G18:27:11/vw/1413/508392/значение слова априоре
G18:27:11/vw/1413/508392/значение слова априоре
YA18:27:46/megasquirt/MegaSquirt по русски
YA18:27:57/megasquirt/login/MegaSquirt по русски
M18:28:14/honda/183/57782/посмотреть порнуху
YA18:29:08/vw-club/39/3230/масло дл€ гр€зного двигател€ -промывка
YA18:29:21/model/3598/1874538/Ќорвежска€ семга невкусна€
M18:29:45/model/533/302442/www icg com
YA18:30:15/model/4505/2314333/джелбрейк
G18:30:58/model/2264/1163034/левомитецин
YA18:31:16/vw/3274/1251549/дилды
YA18:31:16/golf-stream/14/2309/система охлаждени€ golf 3
YA18:32:12/model/782/429551/фото телак
YA18:33:47/model/4611/2370180/закон SB 777
YA18:34:46/vw/2440/930120/полифепам
YA18:35:22/model/5388/2769343/давай дружок по вологде кружок
YA18:35:57/model/803/440555/берегите пенсне, киса
M18:37:05/model/1050/563825/÷итаты из "служебного романа"
YA18:37:44/vw/414/обесчещена€ девушка
YA18:39:20/golflab/110/24749/ Audi 80 проблемы свист
N18:40:16/golf-stream/30/4514/как адаптировать дросельную заслонку
N18:42:19/golflab/28/5075/как адаптировать дросельную заслонку
YA18:42:59/kurilka/165/75434/собака сожрала мышь
YA18:43:02/model/1917/пакажити как бабушек трахают в попку
YA18:43:42/vw/1389/498231/антена кавказ
YA18:44:53/vw/4098/1523578/тарифен хох залупирт
YA18:45:04/kurilka/102/44608/ввв ленинград ввв точка ру
YA18:45:27/model/1575/824447/что удлин€етс€, когда его берут в руки, пропускают между грудей и засовывают в отверстие
R18:45:31/auspuff/24/2900/VW Passat B3
YA18:47:43/kurilka/108/47119/нариман ботинки
G18:48:13/model/4026/2086409/улис нардин
YA18:51:29/model/2610/1339864/письки
G18:51:46/megasquirt/3/818/ћегасквирт
YA18:52:01/model/4146/2143362/как перестать есть углеводы
YA18:52:53/honda/1213/318217/фотки дл€ дрочки
G18:53:00/model/3634/1892597/как прочитать смс сообщени€
YA18:53:02/model/5/2317/Ѕџ¬Ў»… –ќƒƒќћ √–ј”Ё–ћјЌј
G18:54:45/vw/1208/426462/√етеросексуалы кто это
G18:55:50/vw/1523/553748/Ќид‘о—пид
YA18:58:21/model/4812/адна класники
R19:00:16/auspuff/1/103/выхлоп ваз 2110
YA19:00:52/model/1567/820672/на мен€ одели противогаз силой видео
YA19:01:35/golflab/61/13633/курс немецкой марки к рублю
M19:02:18/model/4116/2128993/как пожарить подберезовик
M19:03:10/vw/3278/1252803/вейпарк кинотеатр
YA19:03:20/kurilka/159/71732/по какому каналу сегодн€ футбол
YA19:04:32/model/6563/3353070/пришел на работу не ахай. ¬ыполнил план
YA19:05:00/golflab/21/3392/что такое локеры в авто
YA19:05:24/vw-club/31/2679/код краски по vin
YA19:05:50/model/2586/1326870/–њ–µ—А–Љ–∞–љ–µ–љ—В–љ–Њ–µ —Б–Њ—Б—В–Њ—П–љ–Є–µ - —Н—В–Њ?
M19:06:04/honda/1340/342671/мотоцыколы
YA19:07:42/model/5988/3080205/пидарасн€
YA19:08:05/model/3871/2009666/пеперкраб
YA19:08:56/renault/51/13949/зоофели€
YA19:09:08/renault/51/13949/зоофели€
G19:09:20/model/4623/2377084/liza_myshnina
YA19:09:34/honda/650/194339/www.dom 2.ru
YA19:09:37/model/3851/1999685/сеотт анаграмма
YA19:10:07/honda/721/твист-эген перевод
YA19:10:24/honda/679/202337/автототем
YA19:10:55/megasquirt/3/742/MegaSquirt for AUDI
G19:11:25/vw/2134/800523/“ормоза не откажут на спуске. Ќа подъЄм не заглохнет мотор
G19:11:49/model/1036/1476357/21111111111111111111111111111111111111111111111111111
YA19:12:23/model/4109/2126122/здобшиздуб
YA19:12:23/model/4109/2126122/здобшиздуб
M19:14:55/renault/51/13949/зоофели€
YA19:15:00/model/5947/3062324/бразилианки
M19:15:56/model/1433/752020/еврасеть
G19:16:41/kurilka/278/128132/919 мобильный
M19:17:01/model/4630/2381217/бермудский триугольник
YA19:18:40/kurilka/100/43570/почему нос человека растет всю жизнь
YA19:18:46/nissan/25/7952/кто такой гив ми
G19:18:54/vw/595/200822/www.sisi.ru
M19:19:20/auspuff/30/3602/–азводка на 2 стороны с глушителем
YA19:20:44/model/4182/2160627/поставилс€ герой
YA19:21:02/honda/1331/340796/модели, образы, фото
YA19:21:11/model/1287/вьетнамочки фото
YA19:21:47/model/6845/3476397/www.xxxodnokursniki
YA19:22:13/golflab/87/20087/масла 0W30 0W40
YA19:22:15/model/744/408755/пагода в городе саратов
M19:24:13/model/1433/752020/≈¬–ј—≈“№
YA19:24:58/photo/3/777/zoombrowser ex скачать
YA19:25:38/golflab/122/26991/audi 80 сильно стучат гидрики после замены
YA19:25:47/model/3590/1870254/–¶–Ш–Ґ–Р–Ґ–Ђ - –Т—Л –µ—Б—В—М –Њ—З–µ–љ—М —Е–Њ—А–Њ—И–Њ –Ї—Г—И–∞—В—М! –≤ —Б–Љ—Л—Б–ї–µ? –Т —Б–Љ—Л—Б–ї–µ –Ј–∞–ґ—А–∞–ї–Є—Б—М!
G19:25:55/boards/megasquirt bmw
YA19:26:05/model/1576/825103/все бабы гавно
YA19:27:12/vw/2449/934327/нокиа а600
YA19:27:35/model/4268/2226771/центркомбанк принадлежит
M19:28:15/model/574/323961/пасматреть порно
YA19:28:21/moto/3/NIK369
YA19:29:24/moto/3/NIK369
YA19:29:47/moto/3/NIK369
M19:30:02/model/1295/679773/обсудить форт фокус
YA19:30:04/moto/3/NIK369
YA19:31:17/renault/34/9231/к чему чешетс€ грудь
R19:32:00/16v/1/16/как отремонтировать турбину
YA19:33:12/model/3851/1999685/сеотт
YA19:33:25/model/1555/814225/ чорненька€
YA19:33:27/kurilka/136/61661/как поддержать человека в трудную минуту
YA19:35:26/honda/155/47032/инцэст
YA19:35:42/vw/1200/инструкци€ регулировки моновпрыск на wv двигатель rp
YA19:35:56/model/4140/2140556/как побороть стеснительность в большой незнакомой компании
YA19:36:18/model/3871/2009684/скачать брут брут брут дл€ контакта
YA19:36:50/model/3855/2001584/скачать брут брут брут дл€ контакта
YA19:37:05/vw/1377/493158/сись
YA19:37:08/golflab/89/20467/ресурс двигател€ шкода
YA19:37:38/kurilka/61/25130/Ќе вели казнить, государь! ¬ели слово молвить!
G19:37:46/model/4390/2260418/шлюхи из подворотни 9
YA19:38:33/vw/3309/1263183/весь в муке, хуй в руке
G19:39:02/vw/2380/905987/адамово €блоко рецепты
G19:39:02/model/3851/1999685/ниавд
G19:39:58/auspuff/22/2687/катколлектор трещина
YA19:40:01/honda/1347/344121/семейный разврат
YA19:40:20/model/3634/1892597/прочитать чужие смс бесплатно
YA19:40:48/model/2628/прочитать чужие смс бесплатно
M19:41:32/honda/1073/292383/колотушка тук тук тук спит животное паук
YA19:42:23/golf-stream/10/1668/купить полиуретановые сайлентблоки
YA19:44:05/model/4119/2130588/попадалово.ру
M19:44:51/kurilka/246/112548/фото голых мужиков
YA19:46:53/model/3660/джыпчероки
M19:49:49/golflab/104/23736/Golf2 закипает вода
YA19:50:16/photo/10/3035/сигма на макс 2009
M19:57:26/model/4634/2383073/лысые телки
YA19:57:42/honda/1081/293775/пиздища
YA19:58:05/vw/615/208014/реклама макдональдс wow
YA19:59:29/kurilka/176/80810/золотые цепочки турци€
YA20:00:51/model/4249/2194134/кефир с огурцами
YA20:00:58/renault/38/10357/парнуха
YA20:02:26/model/3377/1751748/кто поет вэйк ап вэйк ап
G20:02:30/model/4480/2302492/бабоукладчик
YA20:02:53/model/5615/2890192∆алкое подобие любви это хорошо
YA20:02:53/model/5615/2890192/∆алкое подобие любви это хорошо
M20:03:27/model/545/309301/пидафил
YA20:04:35/vw/74/30576/играть в игры дл€ девочек 11лет
YA20:05:08/model/546/309465/фото модели "Ѕисмарк"
YA20:05:33/vw/3306/1262207/европейский аналог VERSO
YA20:05:45/model/3288/выбор крассовера
M20:05:58/model/3597/1874178/вис€щие сиськи
YA20:06:07/model/518/295217/ipod в e39
YA20:06:37/vw/2653/1018451/супра из форсажа
G20:08:20/model/4465/2295783/остеохандрос
YA20:08:25/model/3204/1655581slava mix dj vartan скачать
YA20:08:25/model/3204/1655581/slava mix dj vartan скачать
YA20:08:50/vw/3041/1163978/он дрочил в метро
YA20:08:51/model/4146/2143700/йодова€ сетка
YA20:08:53/model/3860/2003666/скайлайн и супра
YA20:09:49/photo/3/669/зависимость диафрагмы от √–»ѕ
YA20:14:37/honda/145/44124/драчилка
YA20:15:12/golflab/81/18743/www.sportgarage.ru
YA20:15:45/model/4613/2371202/ красотоки с членами
YA20:16:48/honda/153/46381/бицтруп
R20:17:21/kurilka/9/2582/пелотка
YA20:17:31/model/150/90205/а крокодилы крокодилы ход€т лежа
YA20:17:32/model/227/133775/что такое ламо
YA20:19:03/model/4973/ фотки с числом 4973
YA20:19:17/golflab/61/13581/силит форсунки
YA20:19:36/auspuff/27/3273/пламегасители Sprint
YA20:19:45/model/3334/1724857/сасок
YA20:21:12/vw/2378/905075/www.marti mira.com
YA20:21:35/model/3463/1802638/джинсы с мотней
YA20:21:36/kurilka/259/118718/алкаголизм
YA20:21:50/model/3347/1734016/как правильно драчить
YA20:23:12/honda/1520/373700/кончает в пизду
YA20:25:00/vw/3742/ваз2107 втуле
YA20:25:00/vw/3306/1262207/европейский аналог VERSO
YA20:25:35/honda/1088/295139/—ент€брь √реци€ тепло
YA20:25:48/model/4736/2435774/образец пропуска на лобовое стекло
YA20:26:15/megasquirt/купить мегасквирт
G20:26:35/kurilka/303/140019/з€бушка
G20:27:46/megasquirt/megasquirt
G20:28:52/megasquirt/megasquirt
G20:29:20/megasquirt/megasquirt
M20:29:25/kurilka/102/44314/чем оттереть зелЄнку
YA20:29:28/model/2841/1461809/восклицательный знак в треугольнике sonyericsson
YA20:30:06/model/1822/951076/фото извращенцев
G20:31:25/honda/1367/347702/пдшники
M20:31:52/golfclub/73/16666/поршневые кольца дл€ двигател€ 2е
G20:32:00/megasquirt/megasquirt
R20:32:25/honda/422/131987/как лепить из пластелина
G20:32:48/megasquirt/megasquirt
G20:32:51/model/549/канфиренци€ по интернету
YA20:33:00/model/1575/824447/–І—В–Њ —Г–і–ї–Є–љ—П–µ—В—Б—П,–Ї–Њ–≥–і–∞ –µ–≥–Њ –±–µ—А—Г—В –≤ —А—Г–Ї–Є,–њ—А–Њ–њ—Г—Б–Ї–∞—О—В –Љ–µ–ґ–і—Г –≥—А—Г–і–µ–є –Є –Ј–∞—Б–Њ–≤—Л–≤–∞—О—В –≤ –Њ—В–≤–µ—А—Б—В–Є–µ?
YA20:33:19/model/4913/2525116/борода и айфон
G20:33:58/model/549/канфиренци€ по интернету
YA20:37:50/model/3903/2024836/ѕустое семейное положение.
M20:38:15/model/4146/2143700/йодова€ сетка
YA20:39:14/golflab/11/1584/какое масло заливать в ј ѕѕ VW golf 3, vr 6
G20:39:18/auspuff/25/3003/W124 104 двигатель
YA20:39:28/vw/101/40753/анекдот про бег
G20:39:49/model/5680/2924668/сфинктр
AP20:42:05/model/1891/988209/карта масквы
YA20:43:19/vw/1122/393275/минизавод купить
YA20:44:39/kurilka/160/72467/цвет куполов церквей
YA20:44:45/model/393/226747/голые на сноуборде
G20:44:59/model/4158/2149398/iphone говно
G20:45:23/model/633/352854/мажевельник
M20:46:19/golflab/128/28172/гольф 2 кпп
G20:46:28/kurilka/310/143893/www.baily.ru
YA20:47:36/golflab/76/17362/щетки стартера VW passat b3
YA20:47:48/ps/5/857/концевик дроссельной заслонки
YA20:48:03/golflab/76/17362/щетки стартера VW passat b3
G20:48:07/kurilka/310/143893/www.baily.ru
M20:50:05/model/152/91975/хуйдай
YA20:50:57/model/5324/фото жэнцкий пизды
G20:50:57/vw/3978/1477557/суррагаты
YA20:51:00/vw/3014/1152430/самогонные этикетки
YA20:51:20/model/2590/1328684/ебл€ на пати
YA20:52:06/vw/1210/426736/идЄт звук а картинки нет
YA20:52:24/model/3632/1891535/ дезадарант
YA20:52:32/nissan/24/кат€ некрасова модель
YA20:54:06/golf-stream/18/2928/переходник под solex дл€ golf
G20:54:29/model/4213/2176563/сискьки
YA20:54:46/model/2087/васьмилетнии мальчик робат
M20:54:57/model/571/321582/самые красивые филиппинки
M20:56:40/kurilka/102/44608/ ленинград, —ѕЅ точка ру скачать бесплатно песню
YA20:56:47/honda/1321/339052/трансы тайланда
YA20:58:00/model/4881/2508312/ чи€
YA20:58:26/model/3821/1985143/"с голыми ногами"
YA20:59:52/model/3267/1689950/как расщипл€етс€ алкоголь
YA21:00:26/kurilka/292/134925/как расщипл€етс€ алкоголь
YA21:01:25/photo/3/777/ZoomBrowser EX
YA21:01:46/honda/670/199646/сасать
G21:02:06/model/1008/546273/ахуенные картинки
YA21:02:26/model/4880/2508013/pizdenki
YA21:02:58/vw-club/39/3232/вискомуфта
YA21:04:45/model/2972/1531007/алан зильберштейн
M21:04:50/model/545/309220/ √јћ
G21:05:50/model/3873/2010620/кастаправ
YA21:07:44/model/2312/1186031/бл€дска€ дорожка
G21:08:31/model/5023/2581620/if you want try to save me
YA21:08:58/photo/4/921/columbia shipmanagement
G21:09:56/model/3274/1692565/‘еналгон
G21:10:02/model/5023/2581620/if you want try to save me
YA21:11:25/golf-stream/33/5024/корректировка фар
M21:11:33/kurilka/115/49916/породы сабак
G21:12:36/model/5973/3072746/трактора свими руками
YA21:13:21/golflab/40/8074/pienburg 2e
YA21:14:52/model/4970/самые дешевые праститутки стрельна
YA21:16:20/honda/404/126231/чем смывать вазелин
YA21:16:22/model/4906/2521490/3/4 дюйма внешний диаметр
M21:17:24/honda/1071/292112/гермофродит
YA21:18:09/kurilka/102/44608/¬вв ленинград спб точка ру
YA21:18:30/honda/713/210710/?all=n/пездище
YA21:18:53/kurilka/293/135497/ сметана дл€ эрекции
YA21:18:57/model/793/435141/криминальные дикторы
G21:19:16/vw/2380/905987/ ак приготовить настойку с јдамово €блокфа
G21:20:24/vw/2965/1134483/related:x-boxi.ru/game_197.html
M21:21:05/model/5214/пээспи фотки
M21:21:12/model/5214/пээспи фотки
M21:21:23/vw/2440/930120/полифепам
G21:21:38/model/1457/764274/Ѕальшыи сиськи
G21:21:39/model/5144/2639288/Ѕальшыи сиськи
G21:21:46/model/1506/788471/Ѕальшыи сиськи
YA21:21:50/honda/439/137311/сматрети парнуху
G21:23:07/model/631/352005/сперматаксикоз
G21:23:32/model/4761/2448503/ƒрачилово
G21:23:42/model/3473/1807581/тюрбот
YA21:23:59/vw/4074/1513696/как работать в пинаккле
YA21:24:09/model/2942/1516123/Ћещинин јлександр череповец e-mail
YA21:24:45/honda/1095/296331/контроллер mfm
YA21:24:45/golflab/112/25116/блок резисторов Passat B3
YA21:24:49/vw/3528/1337606/песн€ мальчик с девочкой дружил мальчик дружбой дорожил
YA21:24:55/honda/439/137311/дом 2 парнуха
M21:25:21/model/3109/1602089/цэлка
G21:26:04/vw/2380/905987/–ецепты настоек из адамово €блока
YA21:27:00/honda/1327/340079/хонда на пролетарке
G21:27:20/model/3473/1807581/тюрбот
YA21:28:48/model/3593/1871797/значение слова приора
M21:28:51/honda/183/57782/посмотреть порнуху
G21:29:07/kurilka/278/128132/7919 оператор
M21:30:40/model/84/49780/именна
YA21:32:24/model/214/126316/картинки с эскалэйд
YA21:32:25/model/3886/2016914/онлайн страх и ненавесть в ласвегасе
YA21:32:37/model/3591/1870711/»ностранец ѕиздец хуево
M21:32:51/golflab/107/24175/износ втулки стартера
YA21:32:51/model/2847/1464879/“юненг фокуса 2
M21:33:34/honda/397/124148/ попугай €го
YA21:33:47/golflab/82/19013/golf4
G21:34:29/vw/2380/905987/ѕриготовление рецептов из адамово €блока
G21:34:30/as/230/135426/оциллококцилум
YA21:35:02/vw/3029/1159055/плоские сиськи
YA21:36:09/model/4888/2512504/кеды два м€ча
YA21:36:12/golflab/100/22854/нужно ли делать сход после замены подшипника
G21:36:16/honda/672/200137/биба и боба
M21:36:20/honda/1067/291295/бритниспирс
YA21:37:26/model/2671/1375063slava club mix скачать
YA21:37:27/model/2671/1375063/slava club mix скачать
YA21:37:30/vw-club/29/2443/магнитола alpha
G21:37:56/model/3089/1591233/скайп.ком
G21:38:24/model/1714/893723/Ќевесту трахнули
YA21:39:46/model/790/434057/жосткае порно
YA21:40:37/vw/2401/913822/все о леще
YA21:40:55/model/687/381960/жопа джей ло
YA21:41:19/model/2604/1336713/а ты не летчик а € была так рада mp3 скачать
G21:41:33/vw/1875/694079/ѕоди, начерти пару формул
G21:41:54/vw/3825/1426989/ай не пиздика
YA21:42:18/vw-club/29/2443/магнитола alpha
YA21:42:53/model/6308/3237385/лабутены
YA21:43:10/vw-club/29/2443/магнитола alpha
YA21:43:14/golflab/59/13094/golf 2 схема зажигани€
YA21:43:35/model/1820/950027/италь€нска€ порнуха
G21:44:00/model/5337/2741049/альфавил
M21:44:30/model/4869/2502026/шевроле тахо обвес
M21:44:44/honda/183/57782/посмотреть порнуху
YA21:45:26/vw-club/29/2443/магнитола alpha
M21:45:50/model/546/309889/в миру кличат
YA21:46:59/model/4502/2313416/чувство голода по ночам
YA21:47:23/vw/2655/1019333/гивми гивми
G21:48:17/vw/2380/905987/маклюра адамово €блоко
YA21:48:34/model/2890/1488430/www.finland.org.ru
YA21:48:42/model/816/447115/Ћюбeзнa€ мo€ Kaтepинa Maтвeeвнa!
YA21:48:51/vw/2440/930120/полифепам
G21:49:17/auspuff/26/бмв325i турбина
YA21:49:35/vw/3657/1377445/как поставить 4 гига
M21:50:18/model/4879/2507464/геленваген
YA21:50:38/model/4061/секс негритосак
YA21:51:48/honda/662/197537/я кончаю от прикосновени€
YA21:52:48/model/3853/2000810/устроитьс€ на работу в ÷Ѕ
YA21:53:47/golflab/58/12881/чем мыть торпеду
G21:55:15/model/1714/893723/Ќевесту трахнули все
G21:55:18/vw/1154/405814/давай быстрее брат налей
YA21:55:29/golflab/112/25178/febi g12
YA21:55:31/honda/1211/317868/febi g12
YA21:56:16/model/457/259374/дождливое такси дали
YA21:56:20/model/117/71342/дела у прокурора а у нас делишки
YA21:56:55/model/678/375974/мальчик в чулках
YA21:57:04/model/728/9 ирота клип
M21:57:53/kurilka/101/43897/глицын
YA21:57:53/model/4913/2524938/мебель зейт
YA21:58:08/kurilka/402/189982/–Ї—В–Њ –њ–Њ–µ—В –њ–µ—Б–љ—О –і–Њ–љ—В –≤–Њ—А—А–Є –±–Є —Е—Н–њ–њ–Є?
G21:58:14/model/4363/2248325/кит касатка
YA21:59:21/renault/17/4652/матароллер
YA22:00:24/model/835/шыны деу матиз
G22:01:08/model/4386/2258545/јлионора јквитанска€
YA22:01:47/honda/183/57782/посмотреть порнуху
YA22:01:55/honda/183/57782/посмотреть порнуху
YA22:02:13/model/2831/1455018/сердце красавицы склонно к измени и перемене как вечер ма€
YA22:02:16/honda/183/57782/посмотреть порнуху
YA22:03:41/vw/2830/сколько стоит новый юджин авто
M22:04:32/honda/1094/296208/ќтветственность за лошь на своем сайте
YA22:04:49/vw/1515/сколько стоит новый юджин авто
YA22:05:25/honda/381/119840/192.168 10. 172.16
G22:06:04/vw/2380/905987/маклюра адамово €блоко
G22:06:13/vw/594/200597/фото насиликоненых девушек
YA22:06:55/model/3873/2010736/как варить лисички
YA22:07:24/photo/3/777/ZoomBrowser EX скачать
G22:07:50/model/4978/2557908/кожаные пирчатки
YA22:10:32/kurilka/121/54037/насто€щие боевые пидарасы
YA22:10:59/model/2312/1186031/бл€дска€ дорожка
YA22:11:14/honda/434/135770/залупа конска€
YA22:12:29/model/75/44924/вгон€й мен€ в долги вгон€й
YA22:12:56/model/1820/949658/—З—В–Њ —В–∞–Ї–Њ–µ —А–∞—Б–њ–Њ—П—Б–∞–ї—Б—П?
G22:13:08/golf-stream/37/5546/гольф передаточные числа
YA22:13:54/model/2860/1472628/девки.кг
YA22:14:22/vw/2505/955067/ј потом трахнули
YA22:15:53/vw-club/29/2443/магнитола alpha
YA22:16:02/model/6136/3157775/сколько промиль можно в россии
M22:16:20/honda/166/51221/фудбольные игры
YA22:16:22/golf-stream/19/3072/AEE адаптаци€ ћфп—щь
M22:16:25/model/3854/2001251/бл€ди
G22:17:35/kurilka/94/40715/генадий циферов дюймовочка
G22:19:52/model/3634/1892597/как прочитать смс сообщени€
YA22:20:21/model/6056/3117016/семь высоток столицы от лопатки до лопатки
YA22:20:47/model/5153/2643548/кришнаитство
AP22:21:09/model/1747/911783/www.euroset.ru
G22:21:41/vw/1523/553748/нидфоспид 2
G22:23:17/vw/995/349886/тарходром
YA22:23:45/golf-stream/30/4464/где расположен датчик топлива в гольфе
YA22:24:29/kurilka/79/34060/http://www.getmovies.ru
M22:24:39/model/782/429551/фото телак
YA22:24:42/vw-club/29/2443/магнитола alpha
YA22:24:55/auspuff/27/3247/коллектор на бмв стоимость
YA22:25:25/model/6144/3161666/пет€ пет€ где же наша бентли
YA22:25:44/model/3886/2016914/страх и ненависть в ласвегасе скачать
YA22:25:45/honda/411/128463/киножурнал хочу все знать скачать
YA22:26:06/kurilka/79/34060/http://www.getmovies.ru
G22:26:18/model/4692/2414481/ѕереименовать Iphone
YA22:26:26/kurilka/79/34060/http://www.getmovies.ru
YA22:26:34/renault/4/861/педараст
YA22:27:13/honda/434/135779/залупа в жопе
M22:27:44/kurilka/251/114980/ѕро минет
R22:27:58/vst/3лыжы штокли
G22:28:01/vw/3147/1207037/эксгибицианист
YA22:28:25/model/164/98434/вычисление рассто€ни€ по координатам
YA22:28:49/model/164/98434/вычисление рассто€ни€ по координатам
YA22:29:37/golflab/79/18308/vj;yj pfkbdfnm fynbahbp hfpys[ wdtnjd
YA22:31:30/model/546/309732/пр€талс€ от армии
M22:31:39/model/4644/2388680/какашки во рту
YA22:33:04/model/4906/2521771/пе«ƒ»
YA22:34:06/model/4906/2521771/пе«ƒ»
YA22:35:12/kurilka/301/139420/секс азербайджанкой
G22:35:25/vw/2380/905987/маклюра адамово €блоко
G22:35:57/model/1100/587185/матацыклы
YA22:36:55/model/4450/2288001MagicSim 15-A
YA22:36:55/model/4450/2288001/MagicSim 15-A
G22:36:57/golf-stream/38/5605/доработка гольф 2
YA22:37:00/model/3116/1606149/мудофиль
YA22:37:01/honda/1334/341462/отт€нутые соски
M22:37:56/vw/4073/1513539/электромангалы
R22:40:04/as/168/100084/левис 501
YA22:42:34/honda/996/275741/?all=n/камышового кота
YA22:46:39/golflab/106/24081/двигатель akl плавают холостые обороты
R22:48:00/honda/429/134055/левис 501
YA22:48:06/model/733/404019/в сраку бабу
YA22:48:46/kurilka/108/47234/сарафан с завышенной талией
YA22:49:29/golflab/106/24081/двигатель akl плавают холостые обороты
G22:50:57/model/1303/684609/ездить на нерастаможенной машине по украине
YA22:53:52/auspuff/12/1479/бренчит катализатор
YA22:54:38/kurilka/154/69821/лесб€нки
YA22:54:50/model/5/2654/€ против модерации
YA22:56:13/photo/21/6336/страшные девки фото
G22:57:04/honda/1223/320778/топ жир
G22:58:02/honda/1223/320778/топ жир
G22:58:32/model/5213/2674914/дукати696
G22:58:33/model/4171/2155315/одножопники
M22:59:20/model/3900/2023706/жабры на авто
M22:59:24/model/4901/2518950/ѕорно хахлушки
YA23:00:39/model/5556/секс схуденькой
G23:01:01/model/3162/1632685/квантилион
YA23:01:05/vw/3278/1252803/кинотеатр на мкаде
YA23:01:13/model/1428/бесплатные игры рыцри
G23:01:53/honda/1223/320778/топ жир
YA23:02:08/model/350/204954/rfr gbitncz gjhi
M23:02:17/model/2610/1339864/письки-сиськи
G23:02:22/honda/713/210710/пездище
YA23:02:32/honda/138/42200/полюции
YA23:02:47/kurilka/142/64508/инцест с матерью в кино
YA23:03:22/model/4353/2242782/€бвдул
YA23:03:52/vw/2427/924956/никрофил
YA23:04:43/model/3846/1996847/ютуби
R23:05:04/as/200/118126/–√’“”
G23:05:11/model/4837/2485136/грибешки
YA23:05:51/vw/2532/966400/дойка жен
YA23:06:21/model/1584/829730/драчил
YA23:06:57/kurilka/179/82331/скрыта€ камира
G23:07:00/model/2242/1152310/ламбарджыни
YA23:07:02/model/1291/677484/где находитс€ удмурти€
G23:07:23/vw/3696/1389243/как лучше подрочить
YA23:07:30/golflab/93/21465/wv клуб
M23:08:06/honda/439/137311/сматреть парнуху
YA23:08:36/model/2610/1339864/письки
YA23:09:30/kurilka/393/185857/раскладка камиинов
YA23:09:45/model/488/277591/"ароматы и запахи в культуре"
YA23:12:01/model/6459/3308208/пизда у животных
YA23:13:19/model/4736/2435708/дорога€ € купил тебе хуйню название песни
G23:15:24/model/1081/ресторан супофф
YA23:15:54/kurilka/102/44241/чпокатьс€
G23:16:52/honda/1008/278863/цущ
YA23:16:59/golf-stream/9/1546/замена часов на на тахометр B3
G23:17:10/vw/3682/1385289/letetbit
G23:18:07/model/1968/1025236/пидафилы
YA23:18:35/honda/453/141664/?all=n/∆енщина должна уметь делать 70 вещей: мыть посуду и 69.
M23:19:32/vw/2383/907023/ ответственность за состо€ние дорожного покрыти€
YA23:21:05/honda/1345/343757/из чего делают сордельки
YA23:21:53/kurilka/175/80537/"у мен€ нет пиписьки"
G23:22:23/model/5147/2640883/виктор цой звезда по имени солнце
YA23:22:52/model/2890/1488414/жанна фриске сасЄт
YA23:22:58/vw/3274/1251549/дилды
YA23:23:03/auspuff/30/3533/замер противодвлени€ катализатора
G23:23:14/vw/3501/1328889/как заправить чернильную ручку
YA23:23:48/honda/453/141664/?all=n/∆енщина должна уметь делать 70 вещей: мыть посуду и 69.
G23:25:00/model/5954/3065069/как раст€нуть джинсы
G23:25:32/honda/714/210846/дрочуноф
YA23:27:20/photo/3/777/—качать zoombrowser ex
YA23:27:23/model/774/424786/чтобы быстрее росла щетина
YA23:27:43/kurilka/90/38960/фото теток с обвисшими сиськами
G23:28:27/model/4651/2392509/фел€цы€
YA23:28:29/renault/51/13949/зоофели€
YA23:28:48/vw/1745/красноложкин аркадий
M23:29:11/golflab/114/25671/монолиткомавто
G23:30:36/model/1133/602516/7devok
M23:31:57/golf-stream/34/5213/как изгнать шайтана
YA23:32:05/kurilka/100/43570/почему у алкоголиков красный нос
YA23:33:32/model/736/405391/гетросексуалы
YA23:33:44/model/2310/1185175/стриптис онлайн
M23:34:45/model/4644/2388680/какашки во рту
YA23:35:34/honda/166/50867/авто тт
YA23:36:37/vw/1377/493158/сись
M23:36:41/golf-stream/19/3163/гольф 3 марелли
YA23:36:59/photo/3/777/zoombrowser скачать
M23:38:04/golf-stream/19/3163/гольф 3 марелли
M23:38:20/model/2200/1132203/—ериал ќстаца в живых
G23:40:27/model/2585/1326120/миркантильна€
M23:41:45/honda/183/57779/что такое ананизм
YA23:42:10/honda/430/134558/анна дигуэс
YA23:42:49/model/404/232783/бмв х3 дл€ женщин
M23:43:09/model/4504/2314103/почта в €ндыксе
M23:43:19/model/4805/гастиница в анапе( чорна€ море)
G23:43:33/model/2571/1318148/елеонора быстрицка€
YA23:44:23/model/797/437383/анаизм
YA23:45:05/model/797/437383/анаизм
YA23:45:32/model/4676/космическа€ эротика
YA23:46:12/model/1286/675266/кто дарит серебр€ную ложку
M23:46:30/renault/51/13949/зоофели€
G23:47:19/model/2571/1318148/элеонора быстрицка€
G23:49:00/vw/2380/905987/адамово €блоко рецепты
G23:49:05/model/745/409132/литтербол
YA23:49:43/model/5388/2769343/давай дружок по вологде кружок скачать
YA23:49:45/model/5388/2769343/давай дружок по вологде кружок скачать
R23:50:17/auspuff/27/3242/бмв 850
M23:50:39/vw/60/24627/vw на параплане
YA23:50:49/renault/51/13949/зоофели€
YA23:51:21/model/6264/3219688/сказка про цар€ колбаску
YA23:53:32/model/790/434057/∆ќ—“ ј≈ ѕќ–Ќќ
G23:53:39/model/6913/3508625/√лавный виновник целлюлита Ц это ношение тесно облегающих бЄдра брюк
G23:54:14/model/3986/2068149/Ћахматки
G23:55:14/vw/3122/1197310/гольфы фото
YA23:55:38/kurilka/169/76868/однососники
YA23:55:43/golflab/14/2300/сальник кулисы golf 1
G23:55:47/vw/2755/1055114/как перестать онанировать
YA23:57:00/model/480/272704/ƒевки в коротких юбках
YA23:59:01/golflab/5/823/как подготовить машину к поездке

»того: 1354
yandex: 878
google: 443
go.mail.ru: 167
rambler: 21
nigma: 8
aport.ru: 4
yahoo: 1
search.icq.com: 1
search.tut.by: 1
gogo.ru: 1

 онфа © osudim.org [–аботает с 27.06.2001]
¬се авторские права принадлежат авторам сообщений и охран€ютс€ законом.
ќтветственность за содержание сообщений несут их авторы.